Time;durP1;ratioP1;P1;durP2;ratioP2;P2;SDS_P1;SDS_P2;PMS_P1;PMS_P2;Temp;Humidity;BMP_temperature;BMP_pressure;BME280_temperature;BME280_humidity;BME280_pressure;Samples;Min_cycle;Max_cycle;Signal;HPM_P1;HPM_P2
2022/08/04 00:00:13;;;;;;;11.02;6.10;;;;;;;21.16;82.75;101115.84;5067388;28;20039;-85
2022/08/04 00:02:50;;;;;;;11.68;6.72;;;;;;;21.13;82.75;101122.72;5064288;28;20028;-84
2022/08/04 00:05:36;;;;;;;14.80;6.90;;;;;;;21.25;81.15;101109.47;5067574;28;20047;-84
2022/08/04 00:08:19;;;;;;;13.93;6.85;;;;;;;21.28;81.30;101108.09;5066649;28;20590;-84
2022/08/04 00:10:49;;;;;;;14.82;7.43;;;;;;;21.09;82.47;101113.34;5066913;28;20034;-84
2022/08/04 00:13:21;;;;;;;12.50;7.20;;;;;;;21.11;82.43;101110.34;5066561;28;20037;-84
2022/08/04 00:15:51;;;;;;;15.43;7.35;;;;;;;21.20;81.03;101103.16;5066473;28;20032;-84
2022/08/04 00:18:25;;;;;;;11.18;6.70;;;;;;;20.99;82.64;101105.94;5065718;28;20047;-84
2022/08/04 00:20:58;;;;;;;12.80;7.05;;;;;;;20.95;82.75;101115.03;5066419;28;20053;-84
2022/08/04 00:23:25;;;;;;;10.60;7.00;;;;;;;20.84;83.09;101108.69;5066194;28;20066;-84
2022/08/04 00:25:52;;;;;;;13.65;7.43;;;;;;;20.80;83.20;101102.88;5065801;28;20032;-84
2022/08/04 00:28:18;;;;;;;11.68;7.32;;;;;;;20.77;83.36;101102.59;5066397;28;21368;-84
2022/08/04 00:30:43;;;;;;;13.68;7.10;;;;;;;20.77;83.42;101105.34;5066078;28;20786;-84
2022/08/04 00:33:09;;;;;;;14.23;6.63;;;;;;;20.92;81.98;101103.44;5066283;28;20032;-84
2022/08/04 00:35:37;;;;;;;12.40;7.35;;;;;;;20.69;83.12;101102.06;5066607;28;20058;-84
2022/08/04 00:38:02;;;;;;;11.90;7.30;;;;;;;20.74;83.17;101090.25;5065603;28;20300;-84
2022/08/04 00:40:49;;;;;;;13.20;6.40;;;;;;;20.89;81.34;101090.22;5066112;28;20048;-84
2022/08/04 00:43:47;;;;;;;11.63;6.00;;;;;;;20.90;81.44;101089.13;5065115;28;20132;-84
2022/08/04 00:46:27;;;;;;;14.18;6.60;;;;;;;20.91;81.76;101089.94;5066257;28;20036;-83
2022/08/04 00:49:09;;;;;;;13.57;6.30;;;;;;;21.03;80.32;101086.94;5065017;28;20039;-84
2022/08/04 00:51:51;;;;;;;14.95;7.00;;;;;;;20.96;80.92;101081.69;5065622;28;20488;-84
2022/08/04 00:54:28;;;;;;;12.07;6.20;;;;;;;20.89;81.25;101086.66;5066359;28;20051;-84
2022/08/04 00:57:27;;;;;;;12.18;5.95;;;;;;;20.95;80.87;101084.72;5065383;28;20483;-84
2022/08/04 00:59:52;;;;;;;17.58;5.95;;;;;;;20.96;80.47;101076.19;5066234;28;20492;-84
2022/08/04 01:02:42;;;;;;;12.35;6.30;;;;;;;20.93;81.03;101085.00;5065402;28;20031;-84
2022/08/04 01:05:20;;;;;;;13.32;6.15;;;;;;;20.98;80.33;101076.72;5064824;28;20101;-84
2022/08/04 01:08:05;;;;;;;9.75;5.60;;;;;;;21.08;79.04;101070.41;5065801;28;20031;-84
2022/08/04 01:10:36;;;;;;;;;;;;;;;21.10;78.56;101075.63;5066063;28;20036;-84
2022/08/04 01:13:46;;;;;;;11.50;5.97;;;;;;;21.14;78.58;101065.72;5065396;28;20426;-84
2022/08/04 01:16:16;;;;;;;10.90;5.40;;;;;;;21.15;78.41;101067.38;5062716;28;20044;-84
2022/08/04 01:19:01;;;;;;;12.02;5.88;;;;;;;21.11;78.62;101066.28;5065356;28;20066;-84
2022/08/04 01:21:53;;;;;;;11.95;5.75;;;;;;;21.16;77.87;101057.97;5064449;28;20043;-84
2022/08/04 01:24:28;;;;;;;16.92;5.80;;;;;;;21.15;78.05;101067.38;5065929;28;20028;-84
2022/08/04 01:27:05;;;;;;;13.10;5.72;;;;;;;21.14;78.05;101055.50;5064823;28;20379;-84
2022/08/04 01:29:36;;;;;;;12.75;5.65;;;;;;;21.14;78.88;101057.44;5065681;28;20059;-84
2022/08/04 01:32:11;;;;;;;12.27;5.60;;;;;;;21.17;77.86;101059.63;5064456;28;20142;-84
2022/08/04 01:34:46;;;;;;;13.73;5.97;;;;;;;21.19;77.80;101055.50;5065522;28;20101;-84
2022/08/04 01:37:39;;;;;;;10.77;6.07;;;;;;;21.15;77.72;101054.41;5065460;28;20345;-84
2022/08/04 01:40:06;;;;;;;14.60;5.70;;;;;;;21.18;77.49;101044.75;5065499;28;20351;-85
2022/08/04 01:42:34;;;;;;;12.82;6.22;;;;;;;21.20;77.51;101045.28;5068360;28;20028;-84
2022/08/04 01:45:10;;;;;;;9.88;5.57;;;;;;;21.20;76.91;101037.03;5064993;28;20039;-83
2022/08/04 01:47:39;;;;;;;12.98;5.82;;;;;;;21.20;77.02;101048.03;5064833;28;20040;-85
2022/08/04 01:50:10;;;;;;;9.25;5.72;;;;;;;21.25;76.54;101048.03;5062799;28;20082;-84
2022/08/04 01:52:37;;;;;;;12.90;5.65;;;;;;;21.24;76.43;101044.47;5064897;28;20363;-84
2022/08/04 01:55:05;;;;;;;11.32;6.10;;;;;;;21.26;76.32;101046.94;5065808;28;20044;-84
2022/08/04 01:57:33;;;;;;;15.30;6.00;;;;;;;21.31;75.77;101043.34;5053968;28;20707;-84
2022/08/04 01:59:59;;;;;;;14.85;6.32;;;;;;;21.35;75.63;101050.78;5064394;28;20056;-85
2022/08/04 02:02:25;;;;;;;12.15;5.82;;;;;;;21.35;75.43;101039.75;5064717;28;20557;-84
2022/08/04 02:04:50;;;;;;;12.40;5.38;;;;;;;21.35;75.09;101045.28;5065523;28;20488;-85
2022/08/04 02:07:25;;;;;;;14.80;5.80;;;;;;;21.37;74.86;101037.53;5064734;28;20082;-83
2022/08/04 02:10:05;;;;;;;12.70;5.70;;;;;;;21.42;74.71;101040.28;5064570;28;20142;-85
2022/08/04 02:12:52;;;;;;;14.55;6.10;;;;;;;21.42;74.38;101040.28;5064553;28;20028;-83
2022/08/04 02:15:29;;;;;;;11.63;5.40;;;;;;;21.39;74.36;101034.50;5065760;28;20036;-84
2022/08/04 02:17:57;;;;;;;12.60;5.70;;;;;;;21.39;74.51;101029.81;5067839;28;20032;-83
2022/08/04 02:20:28;;;;;;;12.43;5.43;;;;;;;21.42;74.26;101023.75;5069053;28;20465;-86
2022/08/04 02:23:06;;;;;;;13.10;5.70;;;;;;;21.42;74.09;101021.00;5068953;28;20127;-84
2022/08/04 02:25:38;;;;;;;15.05;5.75;;;;;;;21.42;73.90;101015.47;5067725;28;20424;-84
2022/08/04 02:28:23;;;;;;;8.63;5.25;;;;;;;21.44;74.04;101022.66;5068463;28;20040;-85
2022/08/04 02:31:11;;;;;;;12.38;5.15;;;;;;;21.45;73.65;101013.28;5067820;28;20047;-85
2022/08/04 02:33:40;;;;;;;10.48;5.18;;;;;;;21.46;73.17;101017.66;5068934;28;20480;-83
2022/08/04 02:36:12;;;;;;;12.55;5.40;;;;;;;21.48;73.04;101009.94;5068866;28;20036;-84
2022/08/04 02:39:00;;;;;;;10.75;4.78;;;;;;;21.48;73.04;101016.28;5066137;28;20145;-84
2022/08/04 02:41:29;;;;;;;12.90;5.03;;;;;;;21.48;72.84;101007.19;5067208;28;20380;-85
2022/08/04 02:43:58;;;;;;;8.88;4.70;;;;;;;21.47;72.58;101011.06;5067591;28;20040;-85
2022/08/04 02:46:24;;;;;;;11.00;4.68;;;;;;;21.45;72.66;101005.00;5068098;28;20026;-84
2022/08/04 02:48:52;;;;;;;10.13;4.88;;;;;;;21.47;72.64;101008.28;5068279;28;20036;-84
2022/08/04 02:51:22;;;;;;;11.95;5.18;;;;;;;21.47;72.37;101009.09;5068277;28;20031;-84
2022/08/04 02:53:51;;;;;;;12.52;4.78;;;;;;;21.42;72.58;101007.22;5068414;28;20032;-84
2022/08/04 02:56:19;;;;;;;10.85;4.65;;;;;;;21.48;72.25;101001.69;5068553;28;20043;-84
2022/08/04 02:58:50;;;;;;;13.68;5.15;;;;;;;21.46;72.53;101001.97;5067448;28;20074;-85
2022/08/04 03:01:16;;;;;;;12.18;4.55;;;;;;;21.44;72.42;100997.84;5067424;28;20136;-85
2022/08/04 03:03:50;;;;;;;11.60;4.82;;;;;;;21.42;72.76;101000.88;5066199;28;20073;-85
2022/08/04 03:06:42;;;;;;;13.73;5.50;;;;;;;21.42;72.76;100995.38;5067783;28;20132;-84
2022/08/04 03:09:27;;;;;;;12.05;5.00;;;;;;;21.40;72.57;100992.88;5067601;28;20058;-84
2022/08/04 03:12:21;;;;;;;11.55;4.80;;;;;;;21.40;72.66;100992.06;5067623;28;20040;-83
2022/08/04 03:15:10;;;;;;;14.05;4.85;;;;;;;21.38;72.52;100986.00;5067686;28;20040;-84
2022/08/04 03:17:54;;;;;;;12.57;5.30;;;;;;;21.35;72.86;100989.31;5067639;28;20156;-84
2022/08/04 03:20:44;;;;;;;12.95;4.97;;;;;;;21.36;72.62;100989.03;5066660;28;20500;-85
2022/08/04 03:23:46;;;;;;;13.73;5.30;;;;;;;21.33;72.66;100978.56;5068360;28;20134;-85
2022/08/04 03:26:44;;;;;;;11.27;5.30;;;;;;;21.28;73.34;100984.09;5067302;28;20043;-85
2022/08/04 03:29:44;;;;;;;10.65;4.85;;;;;;;20.96;76.04;100982.53;5067202;28;20039;-84
2022/08/04 03:32:28;;;;;;;12.00;5.53;;;;;;;20.63;78.11;101003.19;5065665;28;20482;-83
2022/08/04 03:35:50;;;;;;;18.50;5.85;;;;;;;20.31;78.87;101015.28;5066367;28;21802;-83
2022/08/04 03:38:46;;;;;;;13.70;6.03;;;;;;;20.21;78.88;101003.16;5014781;28;20091;-81
2022/08/04 03:41:54;;;;;;;16.38;5.90;;;;;;;20.32;78.45;101004.00;5066996;28;20568;-84
2022/08/04 03:44:22;;;;;;;14.23;5.50;;;;;;;20.34;78.70;100987.22;5067548;28;20059;-84
2022/08/04 03:47:05;;;;;;;14.18;5.50;;;;;;;20.31;79.10;100988.59;5067893;28;20074;-84
2022/08/04 03:49:48;;;;;;;15.55;5.82;;;;;;;20.14;81.30;100982.53;5067629;28;20416;-84
2022/08/04 03:55:25;;;;;;;13.90;5.65;;;;;;;19.79;82.06;100995.91;5066241;28;20097;-84
2022/08/04 03:58:06;;;;;;;18.35;6.40;;;;;;;19.74;82.84;100995.88;5067785;28;20032;-84
2022/08/04 04:00:50;;;;;;;13.75;6.07;;;;;;;19.75;82.37;100994.78;5066947;28;20039;-83
2022/08/04 04:03:16;;;;;;;13.40;6.13;;;;;;;19.59;84.31;101010.38;5066303;28;20239;-84
2022/08/04 04:06:11;;;;;;;13.18;6.10;;;;;;;19.43;85.20;101011.41;5065970;28;20044;-83
2022/08/04 04:08:52;;;;;;;12.85;6.25;;;;;;;19.40;84.90;101019.09;5066791;28;20031;-83
2022/08/04 04:11:44;;;;;;;16.52;5.90;;;;;;;19.47;83.92;101018.03;5067038;28;20572;-81
2022/08/04 04:14:34;;;;;;;16.53;6.20;;;;;;;19.54;83.67;101021.34;5066572;28;20123;-82
2022/08/04 04:17:38;;;;;;;15.38;6.03;;;;;;;19.55;83.90;101014.75;5067325;28;20198;-84
2022/08/04 04:20:13;;;;;;;13.57;5.70;;;;;;;19.54;84.90;101015.84;5065878;28;20104;-84
2022/08/04 04:23:08;;;;;;;16.52;6.03;;;;;;;19.57;84.20;101018.09;5067033;28;20032;-82
2022/08/04 04:25:48;;;;;;;14.68;5.82;;;;;;;19.62;85.06;101029.09;5065987;28;20664;-84
2022/08/04 04:28:37;;;;;;;15.48;5.90;;;;;;;19.71;83.35;101029.41;5065031;28;20088;-84
2022/08/04 04:31:08;;;;;;;12.90;6.00;;;;;;;19.53;85.85;101027.97;5063474;28;20510;-83
2022/08/04 04:34:07;;;;;;;11.90;5.75;;;;;;;19.65;84.71;101023.06;5065363;28;20036;-83
2022/08/04 04:37:16;;;;;;;16.10;5.88;;;;;;;19.63;85.00;101033.50;5066923;28;20067;-84
2022/08/04 04:39:55;;;;;;;13.55;5.72;;;;;;;19.60;85.21;101036.78;5064818;28;20407;-84
2022/08/04 04:43:00;;;;;;;20.98;6.00;;;;;;;19.69;84.78;101042.56;5064712;28;20054;-84
2022/08/04 04:45:33;;;;;;;12.32;6.13;;;;;;;19.70;85.37;101039.56;5065997;28;20032;-84
2022/08/04 04:48:20;;;;;;;12.82;5.90;;;;;;;19.69;85.28;101026.09;5066463;28;20685;-84
2022/08/04 04:51:04;;;;;;;15.45;6.30;;;;;;;19.76;84.68;101036.84;5066354;28;20042;-84
2022/08/04 04:53:48;;;;;;;;;;;;;;;19.88;82.77;101027.31;5066558;28;20057;-84
2022/08/04 04:56:40;;;;;;;14.95;5.97;;;;;;;19.87;84.59;101031.16;5065575;28;19920;-84
2022/08/04 04:59:14;;;;;;;11.65;5.72;;;;;;;19.90;84.98;101032.53;5066475;28;20028;-85
2022/08/04 05:02:21;;;;;;;13.40;6.30;;;;;;;19.96;85.38;101036.94;5080481;28;20033;-84
2022/08/04 05:05:07;;;;;;;12.27;6.20;;;;;;;20.03;86.12;101044.94;5065823;28;20376;-84
2022/08/04 05:07:39;;;;;;;13.10;6.35;;;;;;;20.12;87.16;101046.06;5064369;28;20028;-84
2022/08/04 05:10:29;;;;;;;16.50;6.30;;;;;;;20.23;87.26;101050.47;5065507;28;20043;-84
2022/08/04 05:13:09;;;;;;;14.88;6.40;;;;;;;20.32;86.93;101047.22;5066232;28;20043;-84
2022/08/04 05:15:38;;;;;;;13.43;6.10;;;;;;;20.18;88.00;101055.16;5065615;28;20115;-84
2022/08/04 05:18:06;;;;;;;10.60;5.90;;;;;;;20.36;87.43;101051.91;5066217;28;20133;-84
2022/08/04 05:20:42;;;;;;;16.98;6.40;;;;;;;20.45;86.94;101045.84;5065617;28;20121;-85
2022/08/04 05:23:14;;;;;;;14.07;6.47;;;;;;;20.52;86.69;101039.00;5065952;28;20064;-84
2022/08/04 05:25:44;;;;;;;17.27;6.93;;;;;;;20.57;86.61;101041.72;5063439;28;20523;-85
2022/08/04 05:28:23;;;;;;;12.50;6.82;;;;;;;20.58;86.94;101043.38;5065279;28;20040;-84
2022/08/04 05:30:56;;;;;;;13.77;6.50;;;;;;;20.68;87.29;101042.56;5064442;28;20131;-84
2022/08/04 05:33:53;;;;;;;10.07;6.40;;;;;;;20.73;88.41;101052.78;5065182;28;20044;-84
2022/08/04 05:36:23;;;;;;;15.32;6.50;;;;;;;20.82;87.37;101056.66;5061405;28;20062;-84
2022/08/04 05:38:52;;;;;;;11.68;6.43;;;;;;;20.87;88.18;101045.59;5065715;28;20028;-84
2022/08/04 05:41:20;;;;;;;16.20;6.85;;;;;;;20.87;87.42;101045.59;5065096;28;20132;-84
2022/08/04 05:43:46;;;;;;;15.10;6.80;;;;;;;20.98;87.37;101046.41;5063026;28;20040;-84
2022/08/04 05:46:14;;;;;;;14.18;6.80;;;;;;;21.08;85.90;101046.41;5064578;28;20197;-82
2022/08/04 05:48:41;;;;;;;14.13;6.82;;;;;;;21.23;85.07;101050.25;5064804;28;20031;-83
2022/08/04 05:51:09;;;;;;;14.50;7.07;;;;;;;21.31;85.10;101044.19;5062919;28;20029;-84
2022/08/04 05:53:36;;;;;;;14.57;7.80;;;;;;;21.35;84.80;101039.75;5065021;28;20035;-84
2022/08/04 05:56:03;;;;;;;15.27;7.50;;;;;;;21.41;85.01;101035.88;5062572;28;20044;-84
2022/08/04 05:58:30;;;;;;;14.52;8.23;;;;;;;21.52;84.17;101022.06;5069457;28;20379;-84
2022/08/04 06:00:58;;;;;;;16.70;8.07;;;;;;;21.55;84.80;101032.56;5062353;28;20047;-84
2022/08/04 06:03:26;;;;;;;16.00;7.40;;;;;;;21.66;84.42;101034.16;5065429;28;20040;-84
2022/08/04 06:05:51;;;;;;;15.10;7.97;;;;;;;21.80;84.21;101033.53;5063069;28;20391;-84
2022/08/04 06:08:18;;;;;;;15.70;8.88;;;;;;;21.80;85.00;101031.63;5064989;28;20055;-84
2022/08/04 06:10:45;;;;;;;17.35;10.38;;;;;;;21.81;83.83;101029.69;5063211;28;20064;-84
2022/08/04 06:13:13;;;;;;;18.73;10.57;;;;;;;21.87;84.80;101034.09;5064845;28;20356;-84
2022/08/04 06:15:41;;;;;;;15.85;9.20;;;;;;;22.00;84.38;101038.94;5065095;28;20044;-84
2022/08/04 06:18:09;;;;;;;16.55;10.43;;;;;;;22.03;86.48;101035.66;5065023;28;20380;-84
2022/08/04 06:20:37;;;;;;;18.88;11.05;;;;;;;22.11;84.70;101038.91;5064322;28;20048;-84
2022/08/04 06:23:13;;;;;;;18.38;11.00;;;;;;;22.19;83.72;101021.75;5065434;28;20047;-84
2022/08/04 06:25:47;;;;;;;19.08;11.52;;;;;;;22.32;83.37;101034.91;5063814;28;20128;-84
2022/08/04 06:28:14;;;;;;;19.60;11.18;;;;;;;22.42;82.96;101034.88;5065642;28;20044;-84
2022/08/04 06:30:40;;;;;;;17.60;11.25;;;;;;;22.52;81.33;101027.59;5062627;28;20082;-84
2022/08/04 06:33:41;;;;;;;22.33;11.88;;;;;;;22.65;80.41;101026.97;5065099;28;20536;-84
2022/08/04 06:36:06;;;;;;;19.73;11.33;;;;;;;22.82;81.24;101031.22;5060911;28;20048;-84
2022/08/04 06:38:34;;;;;;;19.45;11.75;;;;;;;22.85;82.42;101031.47;5063061;28;20039;-85
2022/08/04 06:41:02;;;;;;;16.58;11.20;;;;;;;23.00;79.82;101035.22;5064645;28;20041;-84
2022/08/04 06:43:29;;;;;;;19.30;11.20;;;;;;;23.17;81.82;101052.19;5063362;28;20469;-84
2022/08/04 06:45:56;;;;;;;20.42;11.70;;;;;;;23.22;80.40;101054.09;5064216;28;20099;-84
2022/08/04 06:48:23;;;;;;;19.50;11.43;;;;;;;23.41;80.32;101051.41;5064599;28;20495;-84
2022/08/04 06:50:49;;;;;;;21.33;12.20;;;;;;;23.52;80.11;101054.88;5063545;28;20071;-83
2022/08/04 06:53:16;;;;;;;20.88;11.20;;;;;;;23.60;75.89;101059.75;5062767;28;20032;-83
2022/08/04 06:55:43;;;;;;;18.48;9.35;;;;;;;23.78;73.97;101058.16;5063252;28;20323;-84
2022/08/04 06:58:10;;;;;;;22.38;9.68;;;;;;;23.96;73.14;101058.50;5064458;28;20464;-84
2022/08/04 07:00:38;;;;;;;19.73;11.13;;;;;;;24.06;72.89;101055.63;5069311;28;20036;-84
2022/08/04 07:03:04;;;;;;;19.85;10.75;;;;;;;24.18;73.79;101056.00;5066969;28;21450;-83
2022/08/04 07:05:30;;;;;;;25.70;11.95;;;;;;;24.27;73.72;101070.81;5068036;28;20163;-83
2022/08/04 07:07:56;;;;;;;21.50;12.82;;;;;;;24.39;74.05;101055.69;5066311;28;20032;-84
2022/08/04 07:10:23;;;;;;;23.65;12.63;;;;;;;24.48;74.42;101059.44;5068606;28;20549;-83
2022/08/04 07:12:50;;;;;;;19.67;12.88;;;;;;;24.52;73.06;101062.41;5064945;28;20489;-84
2022/08/04 07:15:17;;;;;;;20.48;11.98;;;;;;;24.61;72.78;101068.91;5065497;28;20032;-84
2022/08/04 07:17:43;;;;;;;19.58;10.40;;;;;;;24.66;71.41;101055.00;5067641;28;21490;-84
2022/08/04 07:20:09;;;;;;;19.05;9.85;;;;;;;24.66;72.82;101065.28;5067338;28;20064;-84
2022/08/04 07:22:35;;;;;;;18.42;9.77;;;;;;;24.59;73.88;101058.13;5068012;28;20024;-84
2022/08/04 07:25:01;;;;;;;15.98;8.85;;;;;;;24.58;72.17;101056.47;5067591;28;20047;-84
2022/08/04 07:27:26;;;;;;;17.13;8.80;;;;;;;24.64;72.15;101051.69;5066398;28;20644;-84
2022/08/04 07:29:52;;;;;;;15.88;8.25;;;;;;;24.57;71.02;101063.16;5067004;28;20110;-84
2022/08/04 07:32:22;;;;;;;13.57;8.27;;;;;;;24.54;72.08;101063.75;5067870;28;20102;-83
2022/08/04 07:34:51;;;;;;;16.23;8.40;;;;;;;24.47;72.82;101074.38;5066519;28;20089;-83
2022/08/04 07:37:17;;;;;;;15.55;7.90;;;;;;;24.28;72.56;101071.63;5074243;28;20600;-84
2022/08/04 07:39:43;;;;;;;17.13;8.30;;;;;;;24.31;71.99;101081.28;5066974;28;20191;-84
2022/08/04 07:42:09;;;;;;;16.45;8.43;;;;;;;24.25;74.40;101069.47;5065741;28;20037;-84
2022/08/04 07:44:34;;;;;;;17.30;10.10;;;;;;;24.15;73.39;101075.13;5064876;28;20040;-83
2022/08/04 07:47:02;;;;;;;17.15;9.88;;;;;;;24.20;72.06;101080.59;5067020;28;20094;-83
2022/08/04 07:49:29;;;;;;;17.95;10.25;;;;;;;24.33;72.64;101084.56;5067697;28;20122;-83
2022/08/04 07:51:54;;;;;;;17.83;10.48;;;;;;;24.46;73.43;101083.00;5066411;28;20032;-84
2022/08/04 07:54:21;;;;;;;16.50;10.05;;;;;;;24.65;71.51;101083.81;5067699;28;20044;-83
2022/08/04 07:56:50;;;;;;;20.92;10.63;;;;;;;24.80;71.74;101080.00;5074206;28;20044;-84
2022/08/04 07:59:16;;;;;;;19.80;10.52;;;;;;;24.93;70.45;101078.41;5065153;28;20388;-84
2022/08/04 08:01:42;;;;;;;16.55;10.13;;;;;;;25.16;68.85;101075.75;5066633;28;20036;-84
2022/08/04 08:04:09;;;;;;;17.10;9.50;;;;;;;25.23;68.98;101078.97;5067183;28;20451;-83
2022/08/04 08:06:36;;;;;;;16.88;9.60;;;;;;;25.31;67.59;101078.28;5065673;28;20024;-84
2022/08/04 08:09:13;;;;;;;15.57;9.10;;;;;;;25.54;67.69;101084.78;5064668;28;20032;-83
2022/08/04 08:11:42;;;;;;;16.05;9.45;;;;;;;25.70;66.11;101079.75;5065739;28;20040;-83
2022/08/04 08:14:08;;;;;;;17.45;9.57;;;;;;;25.84;67.53;101081.69;5066371;28;20045;-84
2022/08/04 08:16:35;;;;;;;14.27;8.85;;;;;;;25.91;64.45;101085.69;5063779;28;20036;-82
2022/08/04 08:19:01;;;;;;;17.75;8.98;;;;;;;26.01;63.68;101092.97;5066965;28;20025;-81
2022/08/04 08:21:27;;;;;;;16.67;9.18;;;;;;;26.15;66.04;101092.97;5066411;28;20075;-83
2022/08/04 08:23:53;;;;;;;13.80;7.35;;;;;;;26.27;63.00;101092.44;5067167;28;20457;-83
2022/08/04 08:26:18;;;;;;;14.45;7.75;;;;;;;26.32;62.59;101095.13;5065223;28;20610;-80
2022/08/04 08:28:44;;;;;;;16.65;7.45;;;;;;;26.51;62.46;101097.72;5067285;28;20036;-82
2022/08/04 08:31:09;;;;;;;15.68;6.95;;;;;;;26.71;62.31;101093.69;5063438;28;20148;-82
2022/08/04 08:33:35;;;;;;;13.25;6.50;;;;;;;26.73;61.17;101102.50;5065829;28;20048;-80
2022/08/04 08:36:03;;;;;;;13.57;6.55;;;;;;;26.89;62.53;101104.91;5064406;28;20038;-83
2022/08/04 08:38:48;;;;;;;13.15;6.68;;;;;;;26.72;62.07;101109.22;5064504;28;20067;-83
2022/08/04 08:41:52;;;;;;;13.07;6.40;;;;;;;26.81;61.72;101116.81;5067185;28;20034;-82
2022/08/04 08:44:18;;;;;;;;;;;;;;;27.15;62.02;101115.38;5054821;28;20040;-82
2022/08/04 08:47:09;;;;;;;10.52;5.93;;;;;;;26.87;61.49;101118.31;5065864;28;19920;-83
2022/08/04 08:49:50;;;;;;;10.93;5.90;;;;;;;26.83;62.33;101109.75;5065691;28;20039;-82
2022/08/04 08:52:41;;;;;;;9.75;5.00;;;;;;;26.93;60.63;101123.41;5065868;28;20063;-82
2022/08/04 08:55:16;;;;;;;8.65;3.97;;;;;;;27.06;60.33;101121.72;5043930;28;20055;-83
2022/08/04 08:57:48;;;;;;;8.07;3.33;;;;;;;27.24;59.10;101124.59;5066170;28;20036;-81
2022/08/04 09:00:34;;;;;;;10.55;3.63;;;;;;;27.54;58.14;101130.50;5066118;28;20036;-83
2022/08/04 09:03:18;;;;;;;9.32;3.35;;;;;;;27.80;57.74;101130.63;5063254;28;20033;-81
2022/08/04 09:06:17;;;;;;;14.15;3.72;;;;;;;28.08;56.87;101130.38;5065585;28;21782;-82
2022/08/04 09:09:29;;;;;;;12.75;3.88;;;;;;;28.08;56.84;101131.22;5065673;28;20053;-81
2022/08/04 09:12:17;;;;;;;13.98;3.83;;;;;;;27.85;56.04;101129.63;5042387;28;20131;-82
2022/08/04 09:15:05;;;;;;;11.20;3.58;;;;;;;28.14;56.46;101137.47;5064892;28;20065;-83
2022/08/04 09:17:51;;;;;;;11.52;3.13;;;;;;;28.28;54.12;101137.31;5065382;28;20486;-81
2022/08/04 09:20:36;;;;;;;7.28;3.13;;;;;;;28.32;53.67;101148.63;5066044;28;20072;-81
2022/08/04 09:23:12;;;;;;;9.45;3.00;;;;;;;28.19;54.24;101150.41;5065513;28;20476;-81
2022/08/04 09:25:57;;;;;;;10.18;2.88;;;;;;;28.07;54.56;101148.22;5065510;28;20036;-81
2022/08/04 09:28:24;;;;;;;10.57;3.30;;;;;;;27.80;53.54;101145.34;5064914;28;20475;-82
2022/08/04 09:31:08;;;;;;;9.85;2.80;;;;;;;27.91;51.88;101147.84;5065215;28;20036;-82
2022/08/04 09:33:40;;;;;;;12.85;3.10;;;;;;;27.67;51.87;101153.81;5064683;28;20035;-82
2022/08/04 09:36:12;;;;;;;7.18;3.20;;;;;;;27.58;54.93;101157.38;5064910;28;20213;-82
2022/08/04 09:39:05;;;;;;;12.07;3.58;;;;;;;27.57;54.34;101154.91;5064863;28;20093;-82
2022/08/04 09:41:44;;;;;;;7.95;3.50;;;;;;;27.27;55.28;101165.69;5066023;28;20476;-84
2022/08/04 09:44:44;;;;;;;8.65;3.47;;;;;;;27.27;55.07;101162.91;5066305;28;20238;-83
2022/08/04 09:47:38;;;;;;;9.23;2.72;;;;;;;27.49;56.42;101166.84;5063088;28;20036;-83
2022/08/04 09:50:23;;;;;;;8.95;2.88;;;;;;;27.25;52.97;101170.75;5060625;28;20152;-80
2022/08/04 09:52:51;;;;;;;8.45;3.03;;;;;;;26.99;53.29;101170.56;5064355;28;20614;-80
2022/08/04 09:55:25;;;;;;;10.57;2.70;;;;;;;26.95;53.47;101187.03;5064875;28;20734;-81
2022/08/04 09:58:06;;;;;;;13.30;2.53;;;;;;;26.76;54.23;101182.50;5063943;28;20060;-82
2022/08/04 10:00:44;;;;;;;10.43;2.63;;;;;;;26.69;54.64;101187.63;5063916;28;20874;-81
2022/08/04 10:03:11;;;;;;;8.82;2.47;;;;;;;26.55;55.95;101184.06;5063771;28;20048;-83
2022/08/04 10:05:52;;;;;;;8.93;2.65;;;;;;;26.52;56.50;101196.63;5064709;28;20488;-82
2022/08/04 10:08:37;;;;;;;8.88;2.60;;;;;;;26.44;56.46;101200.94;5064643;28;20032;-83
2022/08/04 10:11:08;;;;;;;13.90;3.40;;;;;;;26.20;57.17;101201.19;5064212;28;20071;-81
2022/08/04 10:14:00;;;;;;;15.82;3.17;;;;;;;26.20;57.90;101211.47;5064585;28;20033;-84
2022/08/04 10:16:39;;;;;;;8.15;2.83;;;;;;;25.88;60.10;101215.94;5063062;28;20057;-81
2022/08/04 10:19:13;;;;;;;9.18;2.60;;;;;;;25.70;60.27;101214.91;5064617;28;20306;-82
2022/08/04 10:21:46;;;;;;;9.32;2.90;;;;;;;25.52;61.32;101220.19;5064391;28;20248;-82
2022/08/04 10:24:31;;;;;;;11.55;2.63;;;;;;;25.36;63.16;101207.72;5065029;28;20115;-82
2022/08/04 10:27:05;;;;;;;8.82;2.85;;;;;;;25.05;63.52;101211.78;5062600;28;20451;-81
2022/08/04 10:29:43;;;;;;;11.63;2.92;;;;;;;24.99;64.24;101240.72;5063830;28;20048;-84
2022/08/04 10:32:16;;;;;;;7.32;2.83;;;;;;;24.86;65.53;101283.88;5062437;28;20184;-80
2022/08/04 10:35:13;;;;;;;14.35;3.85;;;;;;;24.71;66.23;101306.22;5064440;28;20036;-81
2022/08/04 10:37:49;;;;;;;8.10;3.00;;;;;;;24.41;68.71;101310.97;5067815;28;20074;-83
2022/08/04 10:40:39;;;;;;;13.90;3.42;;;;;;;24.12;70.72;101292.47;5068813;28;20042;-80
2022/08/04 10:43:15;;;;;;;11.65;3.75;;;;;;;23.77;77.95;101281.44;5068773;28;20032;-83
2022/08/04 10:45:53;;;;;;;15.82;4.45;;;;;;;23.58;76.57;101291.53;5069111;28;20052;-87
2022/08/04 10:48:51;;;;;;;11.25;4.05;;;;;;;23.48;78.97;101264.78;5066371;28;20484;-86
2022/08/04 10:51:38;;;;;;;13.45;4.70;;;;;;;23.29;86.24;101241.72;5067311;28;20043;-81
2022/08/04 10:54:08;;;;;;;10.82;4.30;;;;;;;22.97;86.34;101232.81;5065640;28;20032;-81
2022/08/04 10:56:40;;;;;;;13.45;4.60;;;;;;;22.92;88.23;101210.72;5068245;28;20089;-80
2022/08/04 10:59:11;;;;;;;12.77;4.70;;;;;;;22.96;88.44;101209.03;5068502;28;20062;-80
2022/08/04 11:01:45;;;;;;;11.40;4.70;;;;;;;22.82;88.79;101184.00;5067703;28;20442;-80
2022/08/04 11:04:25;;;;;;;11.13;4.90;;;;;;;22.79;90.69;101179.03;5068895;28;20352;-80
2022/08/04 11:06:51;;;;;;;11.48;4.93;;;;;;;22.67;90.05;101190.44;5067722;28;20122;-80
2022/08/04 11:09:18;;;;;;;11.63;5.05;;;;;;;22.78;88.63;101205.03;5068927;28;20033;-81
2022/08/04 11:11:53;;;;;;;9.93;4.97;;;;;;;22.96;88.35;101214.56;5067892;28;20659;-81
2022/08/04 11:14:45;;;;;;;8.82;5.15;;;;;;;23.02;94.03;101224.47;5067262;28;20078;-82
2022/08/04 11:17:19;;;;;;;15.10;5.18;;;;;;;22.89;88.64;101237.00;5067805;28;20044;-85
2022/08/04 11:20:15;;;;;;;10.70;5.30;;;;;;;22.88;90.33;101226.22;5066248;28;20047;-84
2022/08/04 11:22:54;;;;;;;10.50;5.20;;;;;;;22.82;89.76;101232.88;5082892;28;20606;-84
2022/08/04 11:25:26;;;;;;;10.02;5.13;;;;;;;22.82;91.26;101200.56;5068057;28;20032;-88
2022/08/04 11:28:10;;;;;;;11.65;5.43;;;;;;;22.86;90.13;101207.19;5067232;28;20047;-88
2022/08/04 11:30:45;;;;;;;11.57;5.88;;;;;;;22.87;91.22;101199.72;5066509;28;20032;-88
2022/08/04 11:33:40;;;;;;;10.50;5.63;;;;;;;22.93;93.24;101210.44;5067325;28;20036;-91
2022/08/04 11:36:36;;;;;;;11.15;5.38;;;;;;;22.99;91.72;101218.69;5068259;28;20134;-90
2022/08/04 11:39:27;;;;;;;11.32;5.68;;;;;;;23.19;91.42;101213.06;5068225;28;20173;-87
2022/08/04 11:42:00;;;;;;;13.85;6.30;;;;;;;23.60;95.23;101201.63;5066176;28;20040;-86
2022/08/04 11:44:47;;;;;;;11.93;6.50;;;;;;;24.02;92.06;101202.06;5067972;28;20062;-85
2022/08/04 11:47:33;;;;;;;8.60;4.60;;;;;;;24.38;83.72;101207.16;5066355;28;20035;-84
2022/08/04 11:50:07;;;;;;;12.70;5.30;;;;;;;25.01;87.45;101198.81;5067509;28;20089;-83
2022/08/04 11:52:36;;;;;;;10.80;3.85;;;;;;;25.06;79.91;101201.53;5067689;28;20043;-83
2022/08/04 11:55:06;;;;;;;9.18;3.90;;;;;;;25.56;76.58;101199.03;5068186;28;20549;-82
2022/08/04 11:57:32;;;;;;;9.73;4.25;;;;;;;25.77;76.66;101204.22;5066504;28;20354;-83
2022/08/04 11:59:58;;;;;;;10.32;3.90;;;;;;;26.36;72.02;101203.66;5065684;28;20734;-81
2022/08/04 12:02:39;;;;;;;6.03;4.28;;;;;;;26.19;70.42;101201.50;5063924;28;20039;-84